Time;durP1;ratioP1;P1;durP2;ratioP2;P2;SDS_P1;SDS_P2;PMS_P1;PMS_P2;Temp;Humidity;BMP_temperature;BMP_pressure;BME280_temperature;BME280_humidity;BME280_pressure;Samples;Min_cycle;Max_cycle;Signal;HPM_P1;HPM_P2
2023/01/06 00:00:00;;;;;;;51.57;23.47;;;;;;;;;;5015059;28;20470;-81
2023/01/06 00:02:28;;;;;;;42.13;23.90;;;;;;;;;;5016583;28;20967;-81
2023/01/06 00:04:54;;;;;;;50.03;20.93;;;;;;;;;;5014126;28;20467;-81
2023/01/06 00:07:21;;;;;;;50.50;24.53;;;;;;;;;;5015663;28;20458;-82
2023/01/06 00:09:47;;;;;;;42.63;23.20;;;;;;;;;;5017189;28;20501;-81
2023/01/06 00:12:13;;;;;;;53.67;23.63;;;;;;;;;;5019686;28;20439;-81
2023/01/06 00:14:41;;;;;;;54.97;23.57;;;;;;;;;;5019605;28;20477;-81
2023/01/06 00:17:08;;;;;;;53.80;24.30;;;;;;;;;;5015594;28;20456;-81
2023/01/06 00:19:36;;;;;;;46.63;24.47;;;;;;;;;;5018769;28;20478;-81
2023/01/06 00:22:03;;;;;;;53.03;25.47;;;;;;;;;;5017186;28;20983;-81
2023/01/06 00:24:29;;;;;;;50.23;23.33;;;;;;;;;;5017357;28;21063;-81
2023/01/06 00:26:56;;;;;;;53.60;24.23;;;;;;;;;;5020382;28;20449;-81
2023/01/06 00:29:22;;;;;;;46.83;24.07;;;;;;;;;;5018475;28;21113;-81
2023/01/06 00:31:49;;;;;;;60.73;25.57;;;;;;;;;;5013806;28;20496;-81
2023/01/06 00:34:15;;;;;;;53.63;25.63;;;;;;;;;;5017575;28;20469;-81
2023/01/06 00:36:43;;;;;;;46.97;24.87;;;;;;;;;;5015227;28;20821;-81
2023/01/06 00:39:11;;;;;;;51.03;25.87;;;;;;;;;;5018795;28;20469;-81
2023/01/06 00:44:21;;;;;;;66.93;27.07;;;;;;;;;;5015794;28;20469;-81
2023/01/06 00:46:47;;;;;;;49.87;25.33;;;;;;;;;;5014706;28;20450;-81
2023/01/06 00:49:14;;;;;;;59.30;27.83;;;;;;;;;;5013394;28;20473;-81
2023/01/06 00:51:40;;;;;;;60.20;26.63;;;;;;;;;;5017523;28;20454;-81
2023/01/06 00:54:09;;;;;;;55.83;27.73;;;;;;;;;;5016218;28;20491;-81
2023/01/06 00:56:37;;;;;;;62.47;27.53;;;;;;;;;;5008431;28;20858;-81
2023/01/06 00:59:03;;;;;;;60.60;27.47;;;;;;;;;;5013191;28;20479;-81
2023/01/06 01:01:29;;;;;;;54.03;27.87;;;;;;;;;;5013697;28;20454;-81
2023/01/06 01:03:56;;;;;;;57.60;28.47;;;;;;;;;;5014277;28;20478;-81
2023/01/06 01:06:22;;;;;;;60.87;27.50;;;;;;;;;;5019308;28;20434;-81
2023/01/06 01:08:52;;;;;;;53.40;25.43;;;;;;;;;;5016439;28;20474;-81
2023/01/06 01:14:00;;;;;;;56.07;25.53;;;;;;;;;;5013787;28;20473;-81
2023/01/06 01:16:26;;;;;;;70.43;31.73;;;;;;;;;;5020811;28;20450;-81
2023/01/06 01:18:53;;;;;;;67.70;27.10;;;;;;;;;;5023127;28;20476;-81
2023/01/06 01:21:19;;;;;;;53.20;29.20;;;;;;;;;;5024424;28;20822;-81
2023/01/06 01:23:46;;;;;;;60.67;29.00;;;;;;;;;;5022814;28;20476;-81
2023/01/06 01:26:12;;;;;;;64.60;26.60;;;;;;;;;;5020661;28;20453;-81
2023/01/06 01:28:39;;;;;;;52.30;27.57;;;;;;;;;;5023263;28;20484;-81
2023/01/06 01:31:06;;;;;;;67.53;30.57;;;;;;;;;;5022463;28;20841;-81
2023/01/06 01:33:32;;;;;;;71.80;30.87;;;;;;;;;;5019003;28;20474;-81
2023/01/06 01:36:05;;;;;;;65.57;27.00;;;;;;;;;;5024901;28;20449;-81
2023/01/06 01:38:31;;;;;;;66.90;29.13;;;;;;;;;;5018801;28;20489;-81
2023/01/06 01:40:57;;;;;;;59.83;28.70;;;;;;;;;;5021545;28;20455;-81
2023/01/06 01:43:26;;;;;;;60.83;29.60;;;;;;;;;;5025887;28;20473;-81
2023/01/06 01:45:55;;;;;;;72.90;29.93;;;;;;;;;;5029206;28;20452;-81
2023/01/06 01:48:25;;;;;;;67.03;32.10;;;;;;;;;;5022020;28;20466;-81
2023/01/06 01:50:53;;;;;;;56.13;28.73;;;;;;;;;;5022520;28;20453;-81
2023/01/06 01:53:23;;;;;;;59.90;29.60;;;;;;;;;;5025016;28;21038;-81
2023/01/06 01:55:50;;;;;;;66.90;30.87;;;;;;;;;;5021944;28;20445;-81
2023/01/06 01:58:20;;;;;;;57.20;29.33;;;;;;;;;;5025606;28;20476;-81
2023/01/06 02:00:47;;;;;;;62.30;30.80;;;;;;;;;;5027085;28;20445;-81
2023/01/06 02:03:15;;;;;;;56.37;28.03;;;;;;;;;;5021892;28;20460;-81
2023/01/06 02:05:44;;;;;;;57.17;30.07;;;;;;;;;;5017201;28;20457;-81
2023/01/06 02:08:14;;;;;;;63.73;30.90;;;;;;;;;;5019666;28;20465;-81
2023/01/06 02:10:41;;;;;;;60.37;28.20;;;;;;;;;;5018608;28;20478;-81
2023/01/06 02:13:07;;;;;;;74.77;31.00;;;;;;;;;;5019849;28;20445;-81
2023/01/06 02:15:34;;;;;;;57.63;29.27;;;;;;;;;;5027279;28;20469;-81
2023/01/06 02:18:10;;;;;;;51.60;29.60;;;;;;;;;;5021438;28;20474;-81
2023/01/06 02:20:49;;;;;;;54.83;27.50;;;;;;;;;;5020958;28;20458;-81
2023/01/06 02:23:47;;;;;;;54.80;28.07;;;;;;;;;;5022241;28;20473;-81
2023/01/06 02:26:22;;;;;;;55.20;27.03;;;;;;;;;;5017917;28;20451;-81
2023/01/06 02:29:04;;;;;;;60.97;28.77;;;;;;;;;;5018738;28;21014;-81
2023/01/06 02:31:46;;;;;;;53.20;29.30;;;;;;;;;;5018849;28;20462;-81
2023/01/06 02:34:21;;;;;;;55.53;28.57;;;;;;;;;;5014712;28;20484;-81
2023/01/06 02:36:51;;;;;;;60.67;28.83;;;;;;;;;;5017019;28;20464;-81
2023/01/06 02:39:23;;;;;;;57.00;28.50;;;;;;;;;;5022127;28;20647;-81
2023/01/06 02:41:55;;;;;;;54.83;27.87;;;;;;;;;;5017314;28;20454;-81
2023/01/06 02:44:25;;;;;;;50.53;28.40;;;;;;;;;;5015932;28;20561;-81
2023/01/06 02:47:00;;;;;;;46.03;27.63;;;;;;;;;;5018433;28;21005;-81
2023/01/06 02:49:28;;;;;;;55.90;29.07;;;;;;;;;;5019182;28;20472;-81
2023/01/06 02:51:58;;;;;;;47.43;26.27;;;;;;;;;;5024241;28;20446;-81
2023/01/06 02:54:28;;;;;;;54.20;25.60;;;;;;;;;;5016538;28;20466;-81
2023/01/06 02:57:05;;;;;;;48.97;26.90;;;;;;;;;;5020603;28;20449;-81
2023/01/06 02:59:34;;;;;;;52.47;25.07;;;;;;;;;;5012326;28;20501;-81
2023/01/06 03:02:03;;;;;;;43.17;25.77;;;;;;;;;;5016389;28;20995;-81
2023/01/06 03:04:33;;;;;;;47.27;24.57;;;;;;;;;;5019295;28;20475;-81
2023/01/06 03:07:01;;;;;;;54.17;24.20;;;;;;;;;;5012953;28;20479;-81
2023/01/06 03:09:29;;;;;;;39.03;23.00;;;;;;;;;;5021677;28;20488;-81
2023/01/06 03:11:56;;;;;;;36.60;22.67;;;;;;;;;;5023094;28;20528;-81
2023/01/06 03:14:23;;;;;;;40.43;22.23;;;;;;;;;;5023633;28;20482;-81
2023/01/06 03:16:49;;;;;;;40.50;22.60;;;;;;;;;;5027769;28;20464;-81
2023/01/06 03:19:17;;;;;;;42.10;23.10;;;;;;;;;;5022050;28;20478;-81
2023/01/06 03:21:44;;;;;;;32.13;20.07;;;;;;;;;;5016866;28;20459;-81
2023/01/06 03:24:11;;;;;;;40.93;21.30;;;;;;;;;;5021647;28;21024;-81
2023/01/06 03:26:38;;;;;;;44.53;21.13;;;;;;;;;;5020628;28;20496;-81
2023/01/06 03:29:06;;;;;;;37.37;21.40;;;;;;;;;;5018582;28;21011;-81
2023/01/06 03:31:34;;;;;;;39.80;21.00;;;;;;;;;;5016780;28;20489;-81
2023/01/06 03:34:05;;;;;;;37.43;21.23;;;;;;;;;;5029048;28;21029;-81
2023/01/06 03:36:37;;;;;;;38.67;21.50;;;;;;;;;;5019963;28;20464;-80
2023/01/06 03:39:07;;;;;;;32.20;19.90;;;;;;;;;;5017412;28;20487;-81
2023/01/06 03:44:23;;;;;;;26.70;18.67;;;;;;;;;;5007358;28;20896;-81
2023/01/06 03:46:52;;;;;;;32.07;19.90;;;;;;;;;;5020352;28;20483;-81
2023/01/06 03:49:21;;;;;;;30.97;19.27;;;;;;;;;;5015634;28;20519;-81
2023/01/06 03:51:52;;;;;;;34.87;20.70;;;;;;;;;;5022120;28;20461;-81
2023/01/06 03:54:25;;;;;;;28.23;19.43;;;;;;;;;;5014775;28;20482;-81
2023/01/06 03:56:54;;;;;;;28.73;19.30;;;;;;;;;;5017721;28;20468;-81
2023/01/06 03:59:25;;;;;;;38.27;18.70;;;;;;;;;;5017495;28;20484;-81
2023/01/06 04:01:52;;;;;;;30.60;17.57;;;;;;;;;;5022426;28;20469;-81
2023/01/06 04:04:18;;;;;;;26.23;16.83;;;;;;;;;;5020253;28;20485;-81
2023/01/06 04:06:45;;;;;;;24.33;15.87;;;;;;;;;;5021018;28;20462;-81
2023/01/06 04:09:14;;;;;;;32.40;18.00;;;;;;;;;;5013132;28;21127;-81
2023/01/06 04:14:24;;;;;;;23.00;17.73;;;;;;;;;;5017875;28;20485;-81
2023/01/06 04:16:51;;;;;;;23.30;18.00;;;;;;;;;;5012548;28;20505;-81
2023/01/06 04:19:17;;;;;;;27.80;16.00;;;;;;;;;;5012569;28;20494;-81
2023/01/06 04:21:43;;;;;;;28.40;17.47;;;;;;;;;;5013890;28;20475;-81
2023/01/06 04:24:10;;;;;;;24.23;17.03;;;;;;;;;;5019259;28;20475;-81
2023/01/06 04:26:37;;;;;;;29.77;17.77;;;;;;;;;;5012597;28;20455;-81
2023/01/06 04:29:05;;;;;;;23.57;16.07;;;;;;;;;;5018772;28;20528;-81
2023/01/06 04:31:31;;;;;;;22.87;15.53;;;;;;;;;;5015126;28;20465;-81
2023/01/06 04:33:58;;;;;;;28.40;15.03;;;;;;;;;;5018212;28;20473;-81
2023/01/06 04:36:24;;;;;;;22.63;14.23;;;;;;;;;;5016319;28;20478;-81
2023/01/06 04:38:50;;;;;;;24.73;15.30;;;;;;;;;;5014346;28;20492;-81
2023/01/06 04:41:17;;;;;;;18.53;14.53;;;;;;;;;;5014586;28;20492;-82
2023/01/06 04:43:44;;;;;;;21.40;14.83;;;;;;;;;;5015704;28;20478;-81
2023/01/06 04:46:11;;;;;;;23.00;15.50;;;;;;;;;;5005483;28;20453;-81
2023/01/06 04:48:38;;;;;;;23.23;14.70;;;;;;;;;;5016642;28;20500;-81
2023/01/06 04:51:05;;;;;;;23.80;15.83;;;;;;;;;;5017345;28;20480;-81
2023/01/06 04:53:33;;;;;;;23.90;15.23;;;;;;;;;;5015541;28;20461;-81
2023/01/06 04:56:02;;;;;;;21.30;15.20;;;;;;;;;;5017072;28;20962;-81
2023/01/06 04:58:28;;;;;;;23.63;15.20;;;;;;;;;;5016252;28;20500;-81
2023/01/06 05:01:00;;;;;;;19.77;16.03;;;;;;;;;;5013125;28;20845;-81
2023/01/06 05:03:27;;;;;;;20.83;16.33;;;;;;;;;;5012439;28;20473;-81
2023/01/06 05:05:53;;;;;;;26.13;15.60;;;;;;;;;;5013421;28;20461;-81
2023/01/06 05:08:19;;;;;;;24.13;16.93;;;;;;;;;;5014252;28;20466;-81
2023/01/06 05:10:45;;;;;;;26.17;18.00;;;;;;;;;;5011059;28;20486;-81
2023/01/06 05:13:12;;;;;;;24.07;16.63;;;;;;;;;;5017854;28;20457;-81
2023/01/06 05:15:38;;;;;;;21.37;17.67;;;;;;;;;;5009780;28;20469;-81
2023/01/06 05:18:06;;;;;;;27.63;18.03;;;;;;;;;;5012559;28;20450;-80
2023/01/06 05:20:32;;;;;;;27.37;17.73;;;;;;;;;;5016986;28;20438;-81
2023/01/06 05:22:59;;;;;;;24.00;16.70;;;;;;;;;;5018493;28;20830;-81
2023/01/06 05:25:25;;;;;;;26.53;18.00;;;;;;;;;;5020830;28;20463;-81
2023/01/06 05:27:51;;;;;;;26.40;17.97;;;;;;;;;;5019712;28;20482;-81
2023/01/06 05:30:18;;;;;;;27.60;18.77;;;;;;;;;;5015299;28;20507;-81
2023/01/06 05:32:44;;;;;;;24.53;17.30;;;;;;;;;;5015595;28;20472;-81
2023/01/06 05:35:12;;;;;;;24.03;17.50;;;;;;;;;;5017373;28;20479;-81
2023/01/06 05:37:38;;;;;;;24.57;17.37;;;;;;;;;;5016183;28;20867;-81
2023/01/06 05:40:06;;;;;;;28.00;18.47;;;;;;;;;;5018264;28;20473;-81
2023/01/06 05:42:32;;;;;;;33.27;19.50;;;;;;;;;;5019812;28;20464;-81
2023/01/06 05:44:59;;;;;;;24.63;17.17;;;;;;;;;;5016504;28;20482;-81
2023/01/06 05:47:25;;;;;;;27.43;18.80;;;;;;;;;;5010684;28;20420;-81
2023/01/06 05:49:51;;;;;;;19.50;15.80;;;;;;;;;;5014409;28;20482;-81
2023/01/06 05:52:19;;;;;;;21.40;15.87;;;;;;;;;;5016277;28;20448;-81
2023/01/06 05:54:45;;;;;;;22.70;14.97;;;;;;;;;;5015615;28;20474;-81
2023/01/06 05:57:12;;;;;;;29.20;17.90;;;;;;;;;;5019332;28;20535;-81
2023/01/06 05:59:38;;;;;;;21.00;16.00;;;;;;;;;;5012755;28;20485;-81
2023/01/06 06:02:04;;;;;;;21.30;14.00;;;;;;;;;;5015846;28;20832;-81
2023/01/06 06:04:32;;;;;;;27.93;16.70;;;;;;;;;;5022481;28;21033;-81
2023/01/06 06:06:59;;;;;;;18.97;14.43;;;;;;;;;;5023046;28;20456;-80
2023/01/06 06:09:26;;;;;;;20.90;13.93;;;;;;;;;;5016209;28;20843;-81
2023/01/06 06:11:53;;;;;;;18.97;14.27;;;;;;;;;;5020937;28;20504;-81
2023/01/06 06:14:19;;;;;;;19.13;14.67;;;;;;;;;;5023228;28;20477;-81
2023/01/06 06:16:46;;;;;;;24.10;13.97;;;;;;;;;;5018875;28;20838;-81
2023/01/06 06:19:12;;;;;;;19.23;12.50;;;;;;;;;;5023815;28;21022;-81
2023/01/06 06:21:39;;;;;;;18.87;12.57;;;;;;;;;;5020424;28;20471;-81
2023/01/06 06:24:06;;;;;;;19.50;13.97;;;;;;;;;;5021880;28;20469;-81
2023/01/06 06:26:33;;;;;;;17.20;13.30;;;;;;;;;;5020272;28;20466;-81
2023/01/06 06:28:59;;;;;;;17.50;12.27;;;;;;;;;;5018397;28;20854;-81
2023/01/06 06:31:27;;;;;;;17.93;12.13;;;;;;;;;;5017397;28;20485;-81
2023/01/06 06:33:54;;;;;;;19.23;11.50;;;;;;;;;;5020088;28;20569;-81
2023/01/06 06:36:20;;;;;;;17.20;12.60;;;;;;;;;;5022405;28;20461;-81
2023/01/06 06:38:47;;;;;;;15.97;11.30;;;;;;;;;;5019530;28;20488;-81
2023/01/06 06:41:14;;;;;;;16.60;11.30;;;;;;;;;;5019261;28;20488;-81
2023/01/06 06:43:41;;;;;;;13.83;10.63;;;;;;;;;;5018399;28;20481;-82
2023/01/06 06:46:08;;;;;;;13.43;10.57;;;;;;;;;;5015907;28;20469;-81
2023/01/06 06:48:35;;;;;;;14.90;10.60;;;;;;;;;;5021363;28;20869;-81
2023/01/06 06:51:02;;;;;;;13.00;9.20;;;;;;;;;;5025647;28;20892;-81
2023/01/06 06:53:29;;;;;;;15.70;9.70;;;;;;;;;;5020457;28;20466;-81
2023/01/06 06:55:56;;;;;;;17.13;10.40;;;;;;;;;;5023507;28;20440;-81
2023/01/06 06:58:26;;;;;;;13.57;9.80;;;;;;;;;;5020324;28;20550;-81
2023/01/06 07:00:54;;;;;;;11.57;9.60;;;;;;;;;;5018193;28;20454;-81
2023/01/06 07:03:21;;;;;;;11.37;9.40;;;;;;;;;;5015740;28;20465;-81
2023/01/06 07:05:49;;;;;;;12.20;9.40;;;;;;;;;;5023626;28;20473;-81
2023/01/06 07:08:16;;;;;;;12.63;8.47;;;;;;;;;;5021367;28;20481;-81
2023/01/06 07:10:42;;;;;;;8.87;7.67;;;;;;;;;;5016439;28;20497;-81
2023/01/06 07:13:09;;;;;;;9.30;6.93;;;;;;;;;;5015371;28;20461;-81
2023/01/06 07:15:35;;;;;;;10.10;7.70;;;;;;;;;;5016378;28;20454;-81
2023/01/06 07:18:04;;;;;;;10.50;6.33;;;;;;;;;;5024408;28;20478;-81
2023/01/06 07:20:30;;;;;;;7.90;6.93;;;;;;;;;;5022058;28;20464;-81
2023/01/06 07:22:57;;;;;;;8.60;6.43;;;;;;;;;;5019860;28;20437;-81
2023/01/06 07:25:23;;;;;;;10.73;6.50;;;;;;;;;;5015903;28;20453;-81
2023/01/06 07:27:53;;;;;;;7.63;6.37;;;;;;;;;;5015881;28;20992;-81
2023/01/06 07:30:19;;;;;;;8.90;5.87;;;;;;;;;;5017821;28;20453;-81
2023/01/06 07:32:46;;;;;;;7.90;5.40;;;;;;;;;;5022770;28;20461;-81
2023/01/06 07:35:14;;;;;;;9.67;5.83;;;;;;;;;;5016761;28;20474;-81
2023/01/06 07:37:42;;;;;;;5.93;4.73;;;;;;;;;;5018949;28;20466;-81
2023/01/06 07:40:09;;;;;;;6.77;5.10;;;;;;;;;;5015961;28;21029;-81
2023/01/06 07:42:36;;;;;;;5.70;4.70;;;;;;;;;;5018164;28;20454;-81
2023/01/06 07:45:02;;;;;;;4.80;3.97;;;;;;;;;;5019367;28;20485;-81
2023/01/06 07:47:29;;;;;;;7.47;4.47;;;;;;;;;;5016850;28;20477;-81
2023/01/06 07:49:55;;;;;;;5.60;4.00;;;;;;;;;;5017834;28;20481;-81
2023/01/06 07:52:23;;;;;;;13.63;5.00;;;;;;;;;;5023303;28;20493;-81
2023/01/06 07:54:49;;;;;;;4.83;4.27;;;;;;;;;;5021541;28;20474;-81
2023/01/06 07:57:15;;;;;;;6.40;3.63;;;;;;;;;;5018294;28;20485;-81
2023/01/06 07:59:42;;;;;;;7.13;4.80;;;;;;;;;;5020731;28;20480;-81
2023/01/06 08:02:11;;;;;;;3.63;3.33;;;;;;;;;;5017416;28;20462;-81
2023/01/06 08:04:37;;;;;;;6.50;4.20;;;;;;;;;;5013464;28;20564;-78
2023/01/06 08:07:04;;;;;;;13.40;3.90;;;;;;;;;;5017237;28;20543;-81
2023/01/06 08:09:32;;;;;;;6.73;3.20;;;;;;;;;;5005120;28;20497;-81
2023/01/06 08:11:58;;;;;;;4.20;3.80;;;;;;;;;;5013170;28;20464;-80
2023/01/06 08:14:24;;;;;;;4.53;3.30;;;;;;;;;;5017411;28;20521;-81
2023/01/06 08:16:51;;;;;;;5.90;3.00;;;;;;;;;;5018191;28;20473;-81
2023/01/06 08:19:17;;;;;;;4.63;4.00;;;;;;;;;;5014514;28;20483;-81
2023/01/06 08:21:43;;;;;;;5.90;3.40;;;;;;;;;;5017287;28;20507;-81
2023/01/06 08:24:10;;;;;;;7.70;3.77;;;;;;;;;;5016440;28;20480;-81
2023/01/06 08:26:37;;;;;;;4.90;3.63;;;;;;;;;;5018736;28;20446;-81
2023/01/06 08:29:04;;;;;;;4.97;3.37;;;;;;;;;;5011117;28;20484;-81
2023/01/06 08:31:30;;;;;;;3.67;2.80;;;;;;;;;;5017362;28;21052;-81
2023/01/06 08:33:57;;;;;;;3.90;3.33;;;;;;;;;;5017284;28;20469;-81
2023/01/06 08:36:23;;;;;;;5.30;3.40;;;;;;;;;;5017073;28;20546;-81
2023/01/06 08:38:50;;;;;;;5.03;3.17;;;;;;;;;;5017433;28;20477;-81
2023/01/06 08:41:17;;;;;;;5.50;3.87;;;;;;;;;;5019015;28;20473;-81
2023/01/06 08:43:46;;;;;;;3.70;3.40;;;;;;;;;;5013335;28;20474;-81
2023/01/06 08:46:14;;;;;;;7.77;3.83;;;;;;;;;;5014777;28;20481;-81
2023/01/06 08:48:41;;;;;;;5.50;4.10;;;;;;;;;;5017953;28;20474;-81
2023/01/06 08:51:08;;;;;;;6.00;4.23;;;;;;;;;;5016828;28;20491;-80
2023/01/06 08:53:34;;;;;;;6.67;4.23;;;;;;;;;;5019599;28;20481;-81
2023/01/06 08:56:01;;;;;;;10.10;4.23;;;;;;;;;;5016164;28;20514;-81
2023/01/06 08:58:27;;;;;;;5.80;4.10;;;;;;;;;;5018207;28;20906;-81
2023/01/06 09:00:55;;;;;;;5.30;4.80;;;;;;;;;;5013652;28;20460;-81
2023/01/06 09:03:21;;;;;;;5.77;5.27;;;;;;;;;;5015525;28;20474;-81
2023/01/06 09:05:52;;;;;;;5.07;4.40;;;;;;;;;;5016778;28;20474;-81
2023/01/06 09:08:18;;;;;;;6.00;4.73;;;;;;;;;;5018343;28;20477;-81
2023/01/06 09:10:45;;;;;;;6.43;4.63;;;;;;;;;;5013982;28;20466;-82
2023/01/06 09:13:11;;;;;;;5.77;5.27;;;;;;;;;;5010534;28;20481;-81
2023/01/06 09:15:39;;;;;;;7.30;5.87;;;;;;;;;;5014070;28;20446;-81
2023/01/06 09:18:07;;;;;;;6.73;4.40;;;;;;;;;;5010612;28;20469;-81
2023/01/06 09:20:34;;;;;;;5.43;4.80;;;;;;;;;;5016269;28;20466;-81
2023/01/06 09:23:00;;;;;;;6.30;5.30;;;;;;;;;;5014356;28;20470;-81
2023/01/06 09:25:26;;;;;;;5.90;5.30;;;;;;;;;;5012750;28;20807;-81
2023/01/06 09:27:53;;;;;;;4.90;4.10;;;;;;;;;;5015417;28;20474;-81
2023/01/06 09:30:19;;;;;;;5.50;5.03;;;;;;;;;;5013183;28;20455;-81
2023/01/06 09:32:46;;;;;;;5.80;4.50;;;;;;;;;;5010501;28;20475;-81
2023/01/06 09:35:14;;;;;;;10.80;5.20;;;;;;;;;;5013803;28;20454;-81
2023/01/06 09:37:40;;;;;;;20.27;7.50;;;;;;;;;;5017314;28;20480;-81
2023/01/06 09:40:09;;;;;;;9.30;5.40;;;;;;;;;;5017875;28;20449;-82
2023/01/06 09:42:41;;;;;;;6.40;4.60;;;;;;;;;;5018932;28;20461;-81
2023/01/06 09:45:10;;;;;;;5.40;4.20;;;;;;;;;;5020273;28;20461;-81
2023/01/06 09:47:39;;;;;;;4.20;3.47;;;;;;;;;;5018384;28;20533;-81
2023/01/06 09:50:09;;;;;;;3.27;2.97;;;;;;;;;;5013269;28;20883;-81
2023/01/06 09:52:39;;;;;;;10.83;3.40;;;;;;;;;;5011785;28;20473;-81
2023/01/06 09:55:07;;;;;;;4.30;2.90;;;;;;;;;;5018153;28;20981;-81
2023/01/06 09:57:36;;;;;;;5.80;3.47;;;;;;;;;;5022915;28;20548;-81
2023/01/06 10:00:04;;;;;;;4.30;3.00;;;;;;;;;;5019844;28;20529;-82
2023/01/06 10:02:35;;;;;;;4.03;2.47;;;;;;;;;;5019798;28;20437;-81
2023/01/06 10:05:01;;;;;;;9.20;3.20;;;;;;;;;;5020500;28;20484;-81
2023/01/06 10:07:33;;;;;;;3.30;2.80;;;;;;;;;;5019218;28;20484;-82
2023/01/06 10:10:07;;;;;;;2.70;2.50;;;;;;;;;;5020877;28;20461;-81
2023/01/06 10:12:43;;;;;;;3.50;2.07;;;;;;;;;;5017451;28;20819;-81
2023/01/06 10:15:14;;;;;;;3.83;2.60;;;;;;;;;;5022827;28;20453;-82
2023/01/06 10:17:47;;;;;;;3.80;2.70;;;;;;;;;;5019879;28;20473;-81
2023/01/06 10:20:25;;;;;;;5.13;2.40;;;;;;;;;;5018845;28;20458;-81
2023/01/06 10:22:54;;;;;;;2.23;2.03;;;;;;;;;;5025242;28;20468;-81
2023/01/06 10:25:26;;;;;;;2.20;1.80;;;;;;;;;;5024448;28;20473;-81
2023/01/06 10:27:53;;;;;;;2.33;2.10;;;;;;;;;;5020356;28;20482;-82
2023/01/06 10:30:22;;;;;;;5.73;2.60;;;;;;;;;;5021644;28;20457;-80
2023/01/06 10:32:49;;;;;;;3.23;2.50;;;;;;;;;;5015788;28;20497;-82
2023/01/06 10:35:16;;;;;;;3.60;2.03;;;;;;;;;;5021131;28;20485;-83
2023/01/06 10:37:45;;;;;;;5.47;2.20;;;;;;;;;;5023946;28;20493;-82
2023/01/06 10:40:18;;;;;;;6.50;1.70;;;;;;;;;;5020636;28;20453;-82
2023/01/06 10:42:56;;;;;;;2.67;2.20;;;;;;;;;;5020714;28;20481;-82
2023/01/06 10:45:23;;;;;;;3.90;1.53;;;;;;;;;;5018766;28;20544;-82
2023/01/06 10:47:50;;;;;;;5.20;2.30;;;;;;;;;;5014996;28;21012;-82
2023/01/06 10:50:16;;;;;;;4.20;1.90;;;;;;;;;;5015582;28;20537;-82
2023/01/06 10:52:45;;;;;;;4.53;1.77;;;;;;;;;;5020141;28;20503;-83
2023/01/06 10:55:28;;;;;;;3.87;1.07;;;;;;;;;;5023599;28;20484;-81
2023/01/06 10:57:57;;;;;;;1.97;1.07;;;;;;;;;;5018289;28;20470;-81
2023/01/06 11:00:25;;;;;;;2.60;1.30;;;;;;;;;;5025775;28;20453;-82
2023/01/06 11:02:53;;;;;;;4.00;1.67;;;;;;;;;;5018342;28;20481;-82
2023/01/06 11:05:22;;;;;;;4.50;1.10;;;;;;;;;;5025629;28;20457;-81
2023/01/06 11:07:51;;;;;;;1.03;0.93;;;;;;;;;;5018146;28;20550;-82
2023/01/06 11:10:28;;;;;;;8.80;1.20;;;;;;;;;;5021825;28;20456;-81
2023/01/06 11:12:58;;;;;;;2.60;1.30;;;;;;;;;;5019605;28;20475;-81
2023/01/06 11:15:26;;;;;;;1.80;1.00;;;;;;;;;;5018542;28;20836;-81
2023/01/06 11:17:53;;;;;;;3.13;0.70;;;;;;;;;;5017640;28;20473;-81
2023/01/06 11:20:30;;;;;;;1.47;1.03;;;;;;;;;;5020947;28;20832;-81
2023/01/06 11:23:10;;;;;;;4.87;1.50;;;;;;;;;;5020410;28;20561;-81
2023/01/06 11:25:36;;;;;;;2.70;0.93;;;;;;;;;;5016631;28;20449;-82
2023/01/06 11:28:17;;;;;;;2.40;1.20;;;;;;;;;;5017597;28;20527;-81
2023/01/06 11:30:48;;;;;;;2.60;1.33;;;;;;;;;;5012841;28;20920;-82
2023/01/06 11:33:16;;;;;;;6.10;1.30;;;;;;;;;;5009430;28;20520;-81
2023/01/06 11:35:43;;;;;;;9.03;1.73;;;;;;;;;;5015504;28;20565;-82
2023/01/06 11:38:12;;;;;;;6.47;1.23;;;;;;;;;;5017612;28;20476;-82
2023/01/06 11:40:38;;;;;;;3.53;1.00;;;;;;;;;;5017286;28;20440;-82
2023/01/06 11:43:08;;;;;;;5.23;1.80;;;;;;;;;;5016732;28;20448;-81
2023/01/06 11:45:36;;;;;;;3.63;1.50;;;;;;;;;;5019080;28;20537;-81
2023/01/06 11:48:05;;;;;;;11.67;2.27;;;;;;;;;;5020390;28;20489;-82
2023/01/06 11:50:31;;;;;;;2.50;1.23;;;;;;;;;;5023169;28;20986;-81
2023/01/06 11:52:58;;;;;;;3.73;1.20;;;;;;;;;;5021389;28;20492;-82
2023/01/06 11:55:26;;;;;;;5.80;1.50;;;;;;;;;;5021762;28;20939;-81
2023/01/06 11:57:56;;;;;;;3.93;1.67;;;;;;;;;;5014704;28;20499;-82
2023/01/06 12:00:32;;;;;;;2.20;1.00;;;;;;;;;;5021488;28;20488;-82
2023/01/06 12:03:02;;;;;;;1.90;1.30;;;;;;;;;;5017305;28;20473;-82
2023/01/06 12:05:35;;;;;;;10.30;1.33;;;;;;;;;;5019747;28;20463;-81
2023/01/06 12:08:03;;;;;;;7.57;1.60;;;;;;;;;;5019443;28;20528;-82
2023/01/06 12:10:31;;;;;;;6.33;1.33;;;;;;;;;;5014404;28;20459;-82
2023/01/06 12:12:58;;;;;;;3.50;1.23;;;;;;;;;;5017283;28;20465;-82
2023/01/06 12:15:27;;;;;;;3.33;1.53;;;;;;;;;;5019086;28;20442;-82
2023/01/06 12:17:55;;;;;;;3.33;1.00;;;;;;;;;;5021904;28;20476;-81
2023/01/06 12:20:23;;;;;;;5.73;1.57;;;;;;;;;;5021639;28;20963;-81
2023/01/06 12:22:52;;;;;;;3.90;2.37;;;;;;;;;;5019756;28;20474;-81
2023/01/06 12:25:19;;;;;;;3.53;1.83;;;;;;;;;;5016654;28;20432;-80
2023/01/06 12:27:48;;;;;;;3.07;1.40;;;;;;;;;;5017903;28;20470;-83
2023/01/06 12:30:16;;;;;;;2.30;1.23;;;;;;;;;;5018333;28;20443;-79
2023/01/06 12:32:45;;;;;;;6.67;1.73;;;;;;;;;;5014506;28;20474;-81
2023/01/06 12:35:14;;;;;;;8.30;1.70;;;;;;;;;;5020992;28;20456;-81
2023/01/06 12:37:42;;;;;;;3.87;1.27;;;;;;;;;;5009429;28;20473;-81
2023/01/06 12:40:13;;;;;;;6.10;1.60;;;;;;;;;;5018015;28;20808;-81
2023/01/06 12:42:44;;;;;;;4.57;1.80;;;;;;;;;;5018687;28;20470;-81
2023/01/06 12:45:13;;;;;;;4.57;2.30;;;;;;;;;;5017667;28;20448;-81
2023/01/06 12:47:45;;;;;;;2.80;1.43;;;;;;;;;;5016673;28;20476;-81
2023/01/06 12:50:17;;;;;;;5.13;2.10;;;;;;;;;;5020380;28;20457;-81
2023/01/06 12:52:46;;;;;;;8.80;2.10;;;;;;;;;;5016871;28;20469;-81
2023/01/06 12:55:15;;;;;;;5.37;2.13;;;;;;;;;;5017271;28;20518;-81
2023/01/06 12:57:55;;;;;;;8.73;1.70;;;;;;;;;;5018176;28;20532;-81
2023/01/06 13:00:28;;;;;;;7.17;2.07;;;;;;;;;;5010708;28;20446;-81
2023/01/06 13:03:04;;;;;;;9.10;1.60;;;;;;;;;;5020503;28;21028;-81
2023/01/06 13:05:46;;;;;;;7.87;1.90;;;;;;;;;;5014263;28;20453;-82
2023/01/06 13:08:21;;;;;;;5.20;1.60;;;;;;;;;;5006476;28;20544;-81
2023/01/06 13:10:52;;;;;;;4.40;1.40;;;;;;;;;;5015239;28;20454;-81
2023/01/06 13:13:37;;;;;;;9.50;1.70;;;;;;;;;;5024842;28;20473;-81
2023/01/06 13:16:05;;;;;;;3.03;1.90;;;;;;;;;;5037971;28;20441;-82
2023/01/06 13:18:33;;;;;;;5.47;1.77;;;;;;;;;;5034860;28;20483;-81
2023/01/06 13:21:02;;;;;;;8.40;1.20;;;;;;;;;;5035547;28;20468;-81
2023/01/06 13:23:34;;;;;;;6.53;1.60;;;;;;;;;;5030437;28;20497;-81
2023/01/06 13:26:24;;;;;;;7.93;1.70;;;;;;;;;;5034060;28;20460;-81
2023/01/06 13:28:58;;;;;;;4.33;1.67;;;;;;;;;;4976381;28;20556;-81
2023/01/06 13:31:49;;;;;;;3.43;1.33;;;;;;;;;;5039168;28;20461;-81
2023/01/06 13:34:30;;;;;;;5.40;1.60;;;;;;;;;;5033724;28;20484;-81
2023/01/06 13:37:17;;;;;;;4.80;1.70;;;;;;;;;;5033467;28;20457;-81
2023/01/06 13:39:45;;;;;;;5.57;2.13;;;;;;;;;;5039722;28;20492;-81
2023/01/06 13:42:14;;;;;;;7.80;1.47;;;;;;;;;;5030697;28;20467;-81
2023/01/06 13:44:44;;;;;;;7.83;1.30;;;;;;;;;;5030969;28;20465;-81
2023/01/06 13:47:12;;;;;;;10.70;1.80;;;;;;;;;;5032923;28;20461;-81
2023/01/06 13:49:40;;;;;;;6.60;1.67;;;;;;;;;;5034010;28;20479;-81
2023/01/06 13:52:08;;;;;;;7.10;1.50;;;;;;;;;;5034521;28;20449;-82
2023/01/06 13:54:58;;;;;;;4.73;1.73;;;;;;;;;;5037879;28;20823;-81
2023/01/06 13:57:28;;;;;;;3.97;1.80;;;;;;;;;;5033583;28;20456;-81
2023/01/06 14:00:11;;;;;;;14.03;2.20;;;;;;;;;;5039680;28;20448;-81
2023/01/06 14:02:55;;;;;;;4.70;1.50;;;;;;;;;;5037746;28;20532;-82
2023/01/06 14:05:40;;;;;;;11.17;1.97;;;;;;;;;;5036015;28;20463;-81
2023/01/06 14:08:14;;;;;;;6.73;2.10;;;;;;;;;;5031231;28;20478;-81
2023/01/06 14:10:42;;;;;;;5.60;2.37;;;;;;;;;;5038739;28;20439;-81
2023/01/06 14:13:17;;;;;;;5.40;1.70;;;;;;;;;;5035021;28;20543;-81
2023/01/06 14:15:54;;;;;;;6.70;2.10;;;;;;;;;;5038117;28;20451;-81
2023/01/06 14:18:29;;;;;;;6.70;1.70;;;;;;;;;;5029904;28;20480;-82
2023/01/06 14:20:59;;;;;;;6.47;2.83;;;;;;;;;;5036503;28;20457;-82
2023/01/06 14:23:26;;;;;;;11.30;2.50;;;;;;;;;;5035120;28;20535;-81
2023/01/06 14:25:53;;;;;;;6.37;2.10;;;;;;;;;;5045706;28;20463;-83
2023/01/06 14:28:25;;;;;;;4.30;1.80;;;;;;;;;;5033455;28;20850;-82
2023/01/06 14:31:13;;;;;;;6.40;2.17;;;;;;;;;;5038497;28;20468;-81
2023/01/06 14:33:39;;;;;;;4.60;1.50;;;;;;;;;;5036608;28;20477;-81
2023/01/06 14:36:09;;;;;;;12.50;2.27;;;;;;;;;;5039522;28;20445;-81
2023/01/06 14:38:41;;;;;;;11.23;2.80;;;;;;;;;;5043519;28;20475;-88
2023/01/06 14:41:15;;;;;;;9.13;2.63;;;;;;;;;;5037884;28;21102;-86
2023/01/06 14:43:47;;;;;;;11.27;4.43;;;;;;;;;;5034069;28;20536;-82
2023/01/06 14:46:17;;;;;;;10.00;2.80;;;;;;;;;;5044347;28;20465;-81
2023/01/06 14:48:45;;;;;;;9.17;3.20;;;;;;;;;;5036690;28;20476;-81
2023/01/06 14:51:21;;;;;;;6.63;2.33;;;;;;;;;;5034374;28;20452;-81